createdAt,value
2018-04-17T00:00:31.457Z,47.80
2018-04-17T00:01:31.441Z,46.30
2018-04-17T00:02:31.426Z,49.40
2018-04-17T00:03:31.408Z,46.80
2018-04-17T00:04:31.394Z,47.30
2018-04-17T00:05:31.376Z,47.70
2018-04-17T00:06:31.360Z,48.40
2018-04-17T00:07:31.344Z,48.30
2018-04-17T00:08:31.328Z,49.20
2018-04-17T00:09:31.314Z,50.50
2018-04-17T00:10:31.296Z,45.90
2018-04-17T00:11:31.278Z,48.10
2018-04-17T00:12:31.273Z,49.80
2018-04-17T00:13:31.246Z,47.60
2018-04-17T00:14:31.232Z,49.00
2018-04-17T00:15:31.214Z,49.60
2018-04-17T00:16:31.198Z,48.30
2018-04-17T00:17:31.184Z,47.90
2018-04-17T00:18:31.169Z,48.80
2018-04-17T00:19:31.153Z,50.20
2018-04-17T00:20:31.135Z,49.80
2018-04-17T00:21:31.122Z,49.00
2018-04-17T00:22:31.103Z,51.00
2018-04-17T00:23:31.087Z,50.00
2018-04-17T00:24:31.070Z,50.20
2018-04-17T00:25:31.052Z,49.20
2018-04-17T00:26:31.037Z,49.00
2018-04-17T00:27:31.020Z,48.20
2018-04-17T00:28:31.004Z,47.90
2018-04-17T00:29:30.990Z,50.10
2018-04-17T00:30:30.971Z,49.80
2018-04-17T00:31:30.959Z,49.90
2018-04-17T00:32:30.940Z,49.30
2018-04-17T00:33:30.928Z,48.60
2018-04-17T00:34:30.910Z,46.50
2018-04-17T00:35:30.891Z,48.70
2018-04-17T00:36:30.883Z,48.50
2018-04-17T00:37:30.860Z,49.10
2018-04-17T00:38:30.843Z,48.60
2018-04-17T00:39:30.827Z,49.70
2018-04-17T00:40:30.813Z,47.50
2018-04-17T00:41:30.795Z,48.40
2018-04-17T00:42:30.778Z,47.40
2018-04-17T00:43:30.775Z,48.30
2018-04-17T00:44:30.750Z,49.50
2018-04-17T00:45:30.737Z,46.40
2018-04-17T00:46:30.716Z,47.90
2018-04-17T00:47:30.697Z,46.30
2018-04-17T00:48:30.685Z,47.60
2018-04-17T00:49:30.669Z,46.30
2018-04-17T00:50:30.653Z,46.90
2018-04-17T00:51:30.637Z,47.00
2018-04-17T00:52:30.619Z,49.10
2018-04-17T00:53:30.603Z,51.30
2018-04-17T00:54:30.587Z,48.60
2018-04-17T00:55:30.572Z,48.80
2018-04-17T00:56:30.560Z,48.90
2018-04-17T00:57:30.540Z,46.00
2018-04-17T00:58:30.524Z,47.00
2018-04-17T00:59:30.507Z,47.80
2018-04-17T01:00:30.491Z,46.60
2018-04-17T01:01:30.475Z,49.00
2018-04-17T01:02:30.459Z,46.80
2018-04-17T01:03:30.442Z,47.60
2018-04-17T01:04:30.426Z,50.50
2018-04-17T01:05:30.411Z,47.40
2018-04-17T01:06:30.401Z,48.80
2018-04-17T01:07:30.378Z,48.40
2018-04-17T01:08:30.364Z,49.10
2018-04-17T01:09:30.345Z,48.50
2018-04-17T01:10:30.330Z,48.20
2018-04-17T01:11:30.312Z,48.50
2018-04-17T01:12:30.298Z,46.60
2018-04-17T01:13:30.282Z,47.10
2018-04-17T01:14:30.266Z,46.70
2018-04-17T01:15:30.250Z,45.90
2018-04-17T01:16:30.234Z,47.80
2018-04-17T01:17:30.216Z,50.00
2018-04-17T01:18:30.200Z,50.30
2018-04-17T01:19:30.182Z,47.70
2018-04-17T01:20:30.166Z,49.50
2018-04-17T01:21:30.157Z,47.30
2018-04-17T01:22:30.134Z,47.40
2018-04-17T01:23:30.120Z,47.50
2018-04-17T01:24:30.102Z,47.90
2018-04-17T01:25:30.085Z,46.20
2018-04-17T01:26:30.069Z,47.90
2018-04-17T01:27:30.055Z,46.90
2018-04-17T01:28:30.035Z,48.10
2018-04-17T01:29:30.019Z,49.20
2018-04-17T01:30:30.003Z,47.60
2018-04-17T01:31:29.985Z,47.30
2018-04-17T01:32:29.971Z,48.80
2018-04-17T01:33:29.958Z,47.30
2018-04-17T01:34:29.936Z,46.10
2018-04-17T01:35:29.920Z,48.70
2018-04-17T01:36:29.904Z,47.50
2018-04-17T01:37:29.886Z,47.40
2018-04-17T01:38:29.870Z,47.30
2018-04-17T01:39:29.852Z,47.20
2018-04-17T01:40:29.835Z,46.80
2018-04-17T01:41:29.818Z,46.60
2018-04-17T01:42:29.802Z,47.30
2018-04-17T01:43:29.785Z,46.10
2018-04-17T01:44:29.768Z,47.30
2018-04-17T01:45:29.755Z,47.10
2018-04-17T01:46:29.734Z,48.40
2018-04-17T01:47:29.719Z,49.10
2018-04-17T01:48:29.699Z,49.40
2018-04-17T01:49:29.684Z,46.20
2018-04-17T01:50:29.668Z,47.80
2018-04-17T01:51:29.654Z,47.00
2018-04-17T01:52:29.633Z,47.70
2018-04-17T01:53:29.618Z,48.80
2018-04-17T01:54:29.606Z,46.70
2018-04-17T01:55:29.585Z,47.90
2018-04-17T01:56:29.568Z,46.00
2018-04-17T01:57:29.552Z,49.00
2018-04-17T01:58:29.536Z,48.10
2018-04-17T01:59:29.519Z,47.30
2018-04-17T02:00:29.505Z,50.10
2018-04-17T02:01:29.486Z,48.90
2018-04-17T02:02:29.470Z,48.90
2018-04-17T02:03:29.452Z,49.60
2018-04-17T02:04:29.435Z,50.60
2018-04-17T02:05:29.418Z,48.00
2018-04-17T02:06:29.400Z,50.60
2018-04-17T02:07:29.383Z,50.70
2018-04-17T02:08:29.370Z,49.10
2018-04-17T02:09:29.353Z,49.00
2018-04-17T02:10:29.338Z,52.50
2018-04-17T02:11:29.316Z,48.40
2018-04-17T02:12:29.298Z,51.50
2018-04-17T02:13:29.282Z,50.60
2018-04-17T02:14:29.269Z,52.70
2018-04-17T02:15:29.252Z,52.00
2018-04-17T02:16:29.230Z,50.60
2018-04-17T02:17:29.213Z,52.40
2018-04-17T02:18:29.197Z,53.10
2018-04-17T02:19:29.177Z,50.90
2018-04-17T02:20:29.163Z,52.50
2018-04-17T02:21:29.147Z,52.20
2018-04-17T02:22:29.127Z,52.60
2018-04-17T02:23:29.112Z,50.30
2018-04-17T02:24:29.095Z,50.70
2018-04-17T02:25:29.077Z,51.20
2018-04-17T02:26:29.060Z,51.50
2018-04-17T02:27:29.042Z,54.00
2018-04-17T02:28:29.026Z,51.10
2018-04-17T02:29:29.011Z,52.60
2018-04-17T02:30:28.993Z,52.50
2018-04-17T02:31:28.973Z,53.60
2018-04-17T02:32:28.957Z,52.40
2018-04-17T02:33:28.940Z,53.00
2018-04-17T02:34:28.923Z,51.70
2018-04-17T02:35:28.907Z,50.70
2018-04-17T02:36:28.887Z,52.50
2018-04-17T02:37:28.886Z,52.40
2018-04-17T02:38:28.854Z,51.50
2018-04-17T02:39:28.836Z,52.60
2018-04-17T02:40:28.820Z,52.70
2018-04-17T02:41:28.805Z,53.60
2018-04-17T02:42:28.785Z,50.70
2018-04-17T02:43:28.766Z,52.80
2018-04-17T02:44:28.750Z,55.30
2018-04-17T02:45:28.732Z,52.30
2018-04-17T02:46:28.718Z,53.10
2018-04-17T02:47:28.708Z,53.00
2018-04-17T02:48:28.682Z,51.60
2018-04-17T02:49:28.662Z,55.80
2018-04-17T02:50:28.647Z,56.00
2018-04-17T02:51:28.627Z,55.80
2018-04-17T02:52:28.608Z,51.90
2018-04-17T02:53:28.592Z,54.80
2018-04-17T02:54:28.575Z,55.60
2018-04-17T02:55:28.565Z,53.50
2018-04-17T02:56:28.542Z,56.20
2018-04-17T02:57:28.521Z,56.40
2018-04-17T02:58:28.505Z,50.10
2018-04-17T02:59:28.486Z,51.70
2018-04-17T03:00:28.469Z,51.40
2018-04-17T03:01:28.450Z,51.60
2018-04-17T03:02:28.434Z,50.70
2018-04-17T03:03:28.415Z,52.70
2018-04-17T03:04:28.403Z,51.70
2018-04-17T03:05:28.381Z,52.50
2018-04-17T03:06:28.370Z,52.10
2018-04-17T03:07:28.353Z,49.50
2018-04-17T03:08:28.330Z,49.00
2018-04-17T03:09:28.313Z,50.70
2018-04-17T03:10:28.296Z,51.40
2018-04-17T03:11:28.275Z,52.00
2018-04-17T03:12:28.259Z,52.50
2018-04-17T03:13:28.243Z,51.50
2018-04-17T03:14:28.226Z,50.30
2018-04-17T03:15:28.208Z,52.10
2018-04-17T03:16:28.190Z,49.10
2018-04-17T03:17:28.172Z,53.10
2018-04-17T03:18:28.157Z,50.90
2018-04-17T03:19:28.140Z,52.20
2018-04-17T03:20:28.125Z,53.00
2018-04-17T03:21:28.104Z,52.90
2018-04-17T03:22:28.088Z,53.70
2018-04-17T03:23:28.069Z,51.10
2018-04-17T03:24:28.053Z,52.60
2018-04-17T03:25:28.038Z,52.10
2018-04-17T03:26:28.019Z,50.10
2018-04-17T03:27:28.002Z,50.50
2018-04-17T03:28:27.981Z,50.10
2018-04-17T03:29:27.964Z,49.40
2018-04-17T03:30:27.949Z,51.10
2018-04-17T03:31:27.934Z,48.20
2018-04-17T03:32:27.913Z,49.80
2018-04-17T03:33:27.896Z,46.80
2018-04-17T03:34:27.881Z,49.50
2018-04-17T03:35:27.863Z,52.30
2018-04-17T03:36:27.843Z,49.40
2018-04-17T03:37:27.827Z,48.90
2018-04-17T03:38:27.812Z,49.00
2018-04-17T03:39:27.792Z,48.70
2018-04-17T03:40:27.773Z,47.00
2018-04-17T03:41:27.757Z,47.80
2018-04-17T03:42:27.742Z,48.70
2018-04-17T03:43:27.721Z,46.90
2018-04-17T03:44:27.702Z,49.30
2018-04-17T03:45:27.738Z,50.80
2018-04-17T03:46:27.667Z,45.80
2018-04-17T03:47:27.651Z,48.50
2018-04-17T03:48:27.631Z,50.20
2018-04-17T03:49:27.623Z,48.20
2018-04-17T03:50:27.602Z,47.50
2018-04-17T03:51:27.583Z,45.10
2018-04-17T03:52:27.565Z,45.60
2018-04-17T03:53:27.545Z,47.10
2018-04-17T03:54:27.528Z,47.70
2018-04-17T03:55:27.511Z,50.10
2018-04-17T03:56:27.494Z,47.90
2018-04-17T03:57:27.480Z,48.00
2018-04-17T03:58:27.459Z,49.10
2018-04-17T03:59:27.448Z,50.10
2018-04-17T04:00:27.420Z,48.60
2018-04-17T04:01:27.404Z,49.80
2018-04-17T04:02:27.395Z,49.50
2018-04-17T04:03:27.370Z,47.80
2018-04-17T04:04:27.353Z,48.40
2018-04-17T04:05:27.334Z,47.80
2018-04-17T04:06:27.315Z,48.80
2018-04-17T04:07:27.302Z,47.70
2018-04-17T04:08:27.284Z,49.50
2018-04-17T04:09:27.264Z,49.50
2018-04-17T04:10:27.247Z,48.20
2018-04-17T04:11:27.231Z,48.30
2018-04-17T04:12:27.215Z,51.00
2018-04-17T04:13:27.194Z,51.00
2018-04-17T04:14:27.179Z,49.80
2018-04-17T04:15:27.159Z,47.90
2018-04-17T04:16:27.140Z,50.60
2018-04-17T04:17:27.123Z,48.20
2018-04-17T04:18:27.107Z,50.10
2018-04-17T04:19:27.088Z,47.10
2018-04-17T04:20:27.068Z,46.60
2018-04-17T04:21:27.052Z,46.90
2018-04-17T04:22:27.034Z,47.30
2018-04-17T04:23:27.017Z,49.10
2018-04-17T04:24:26.996Z,49.50
2018-04-17T04:25:26.985Z,48.00
2018-04-17T04:26:26.967Z,48.50
2018-04-17T04:27:26.957Z,49.30
2018-04-17T04:28:26.927Z,51.40
2018-04-17T04:29:26.910Z,50.70
2018-04-17T04:30:26.893Z,48.40
2018-04-17T04:31:26.880Z,48.10
2018-04-17T04:32:26.856Z,50.20
2018-04-17T04:33:26.838Z,52.20
2018-04-17T04:34:26.823Z,52.60
2018-04-17T04:35:26.804Z,52.20
2018-04-17T04:36:26.791Z,49.90
2018-04-17T04:37:26.768Z,49.40
2018-04-17T04:38:26.751Z,50.40
2018-04-17T04:39:26.731Z,46.60
2018-04-17T04:40:26.720Z,47.60
2018-04-17T04:41:26.696Z,51.20
2018-04-17T04:42:26.680Z,49.30
2018-04-17T04:43:26.662Z,50.50
2018-04-17T04:44:26.647Z,51.20
2018-04-17T04:45:26.627Z,51.60
2018-04-17T04:46:26.611Z,53.30
2018-04-17T04:47:26.591Z,50.60
2018-04-17T04:48:26.576Z,50.50
2018-04-17T04:49:26.556Z,48.60
2018-04-17T04:50:26.539Z,48.60
2018-04-17T04:51:26.522Z,52.10
2018-04-17T04:52:26.502Z,49.60
2018-04-17T04:53:26.485Z,52.10
2018-04-17T04:54:26.473Z,49.40
2018-04-17T04:55:26.450Z,49.80
2018-04-17T04:56:26.432Z,56.60
2018-04-17T04:57:26.415Z,53.80
2018-04-17T04:58:26.396Z,52.70
2018-04-17T04:59:26.377Z,49.30
2018-04-17T05:00:26.360Z,46.20
2018-04-17T05:01:26.343Z,45.10
2018-04-17T05:02:26.331Z,48.20
2018-04-17T05:03:26.311Z,50.00
2018-04-17T05:04:26.292Z,50.10
2018-04-17T05:05:26.272Z,48.80
2018-04-17T05:06:26.261Z,47.70
2018-04-17T05:07:26.235Z,49.10
2018-04-17T05:08:26.218Z,46.40
2018-04-17T05:09:26.206Z,45.00
2018-04-17T05:10:26.183Z,46.00
2018-04-17T05:11:26.164Z,45.00
2018-04-17T05:12:26.148Z,45.80
2018-04-17T05:13:26.131Z,46.80
2018-04-17T05:14:26.112Z,46.00
2018-04-17T05:15:26.095Z,49.70
2018-04-17T05:16:26.079Z,48.80
2018-04-17T05:17:26.061Z,49.30
2018-04-17T05:18:26.050Z,46.50
2018-04-17T05:19:26.028Z,44.60
2018-04-17T05:20:26.012Z,43.80
2018-04-17T05:21:26.010Z,46.50
2018-04-17T05:22:25.973Z,46.20
2018-04-17T05:23:25.958Z,45.70
2018-04-17T05:24:25.942Z,48.20
2018-04-17T05:25:25.927Z,45.10
2018-04-17T05:26:25.904Z,46.30
2018-04-17T05:27:25.888Z,46.40
2018-04-17T05:28:25.875Z,46.00
2018-04-17T05:29:25.916Z,49.70
2018-04-17T05:30:25.839Z,44.90
2018-04-17T05:31:25.820Z,46.60
2018-04-17T05:32:25.804Z,44.40
2018-04-17T05:33:25.786Z,46.50
2018-04-17T05:34:25.769Z,46.50
2018-04-17T05:35:25.756Z,47.80
2018-04-17T05:36:25.737Z,51.10
2018-04-17T05:37:25.717Z,49.90
2018-04-17T05:38:25.702Z,53.80
2018-04-17T05:39:25.685Z,52.90
2018-04-17T05:40:25.668Z,52.50
2018-04-17T05:41:25.649Z,52.10
2018-04-17T05:42:25.635Z,51.30
2018-04-17T05:43:25.614Z,52.80
2018-04-17T05:44:25.603Z,51.40
2018-04-17T05:45:25.584Z,51.30
2018-04-17T05:46:25.570Z,52.70
2018-04-17T05:47:25.552Z,50.90
2018-04-17T05:48:25.534Z,51.40
2018-04-17T05:49:25.547Z,52.40
2018-04-17T05:50:25.503Z,52.20
2018-04-17T05:51:25.480Z,50.50
2018-04-17T05:52:25.467Z,54.70
2018-04-17T05:53:25.455Z,52.50
2018-04-17T05:54:25.433Z,53.90
2018-04-17T05:55:25.417Z,53.50
2018-04-17T05:56:25.402Z,55.10
2018-04-17T05:57:25.382Z,52.40
2018-04-17T05:58:25.366Z,52.50
2018-04-17T05:59:25.349Z,53.80
2018-04-17T06:00:25.335Z,53.30
2018-04-17T06:01:25.316Z,54.30
2018-04-17T06:02:25.303Z,53.60
2018-04-17T06:03:25.285Z,53.30
2018-04-17T06:04:25.267Z,53.60
2018-04-17T06:05:25.250Z,54.10
2018-04-17T06:06:25.236Z,52.10
2018-04-17T06:07:25.217Z,53.80
2018-04-17T06:08:25.204Z,52.70
2018-04-17T06:09:25.184Z,52.00
2018-04-17T06:10:25.170Z,51.80
2018-04-17T06:11:25.152Z,54.60
2018-04-17T06:12:25.136Z,51.80
2018-04-17T06:13:25.123Z,53.10
2018-04-17T06:14:25.104Z,53.50
2018-04-17T06:15:25.087Z,52.00
2018-04-17T06:16:25.079Z,52.50
2018-04-17T06:17:25.054Z,53.00
2018-04-17T06:18:25.040Z,52.10
2018-04-17T06:19:25.021Z,53.10
2018-04-17T06:20:25.006Z,51.90
2018-04-17T06:21:24.994Z,52.70
2018-04-17T06:22:24.977Z,51.90
2018-04-17T06:23:24.959Z,53.30
2018-04-17T06:24:24.942Z,54.40
2018-04-17T06:25:24.924Z,52.50
2018-04-17T06:26:24.915Z,52.80
2018-04-17T06:27:24.894Z,53.20
2018-04-17T06:28:24.879Z,51.30
2018-04-17T06:29:24.868Z,52.10
2018-04-17T06:30:24.846Z,53.40
2018-04-17T06:31:24.829Z,52.10
2018-04-17T06:32:24.814Z,51.30
2018-04-17T06:33:24.799Z,51.60
2018-04-17T06:34:24.789Z,52.60
2018-04-17T06:35:24.774Z,51.70
2018-04-17T06:36:24.752Z,53.80
2018-04-17T06:37:24.739Z,53.30
2018-04-17T06:38:24.722Z,53.00
2018-04-17T06:39:24.713Z,52.80
2018-04-17T06:40:24.691Z,52.90
2018-04-17T06:41:24.695Z,52.40
2018-04-17T06:42:24.661Z,50.40
2018-04-17T06:43:24.647Z,53.00
2018-04-17T06:44:24.630Z,50.50
2018-04-17T06:45:24.616Z,49.20
2018-04-17T06:46:24.608Z,50.80
2018-04-17T06:47:24.587Z,51.00
2018-04-17T06:48:24.571Z,50.60
2018-04-17T06:49:24.556Z,50.40
2018-04-17T06:50:24.540Z,49.30
2018-04-17T06:51:24.534Z,49.60
2018-04-17T06:52:24.509Z,47.20
2018-04-17T06:53:24.496Z,49.20
2018-04-17T06:54:24.480Z,49.20
2018-04-17T06:55:24.466Z,50.00
2018-04-17T06:56:24.450Z,48.80
2018-04-17T06:57:24.437Z,48.30
2018-04-17T06:58:24.426Z,48.60
2018-04-17T06:59:24.408Z,46.90
2018-04-17T07:00:24.394Z,46.80
2018-04-17T07:01:24.381Z,48.70
2018-04-17T07:02:24.369Z,47.90
2018-04-17T07:03:24.351Z,47.80
2018-04-17T07:04:24.337Z,46.30
2018-04-17T07:05:24.331Z,46.70
2018-04-17T07:06:24.310Z,47.50
2018-04-17T07:07:24.297Z,48.50
2018-04-17T07:08:24.286Z,44.80
2018-04-17T07:09:24.276Z,46.50
2018-04-17T07:10:24.256Z,45.90
2018-04-17T07:11:24.241Z,45.80
2018-04-17T07:12:24.227Z,44.10
2018-04-17T07:13:24.213Z,46.20
2018-04-17T07:14:24.202Z,45.10
2018-04-17T07:15:24.188Z,43.60
2018-04-17T07:16:24.175Z,44.90
2018-04-17T07:17:24.171Z,44.30
2018-04-17T07:18:24.152Z,42.00
2018-04-17T07:19:24.139Z,43.10
2018-04-17T07:20:24.126Z,44.00
2018-04-17T07:21:24.116Z,42.90
2018-04-17T07:22:24.104Z,41.30
2018-04-17T07:23:24.091Z,40.60
2018-04-17T07:24:24.081Z,40.00
2018-04-17T07:25:24.074Z,40.10
2018-04-17T07:26:24.059Z,38.10
2018-04-17T07:27:24.051Z,36.10
2018-04-17T07:28:24.039Z,36.00
2018-04-17T07:29:24.056Z,35.70
2018-04-17T07:30:24.019Z,36.40
2018-04-17T07:31:24.009Z,33.50
2018-04-17T07:32:24.007Z,32.50
2018-04-17T07:33:23.992Z,34.30
2018-04-17T07:34:23.983Z,33.80
2018-04-17T07:35:23.975Z,32.60
2018-04-17T07:36:23.965Z,32.00
2018-04-17T07:37:23.957Z,30.80
2018-04-17T07:38:23.949Z,29.60
2018-04-17T07:39:23.940Z,30.60
2018-04-17T07:40:24.027Z,31.60
2018-04-17T07:41:23.927Z,30.60
2018-04-17T07:42:23.923Z,30.50
2018-04-17T07:43:23.928Z,31.60
2018-04-17T07:44:23.905Z,30.90
2018-04-17T07:45:23.904Z,27.60
2018-04-17T07:46:23.894Z,27.20
2018-04-17T07:47:23.921Z,27.70
2018-04-17T07:48:23.885Z,25.20
2018-04-17T07:49:23.877Z,26.30
2018-04-17T07:50:23.873Z,25.70
2018-04-17T07:51:23.864Z,24.70
2018-04-17T07:52:23.863Z,25.60
2018-04-17T07:53:23.854Z,24.10
2018-04-17T07:54:23.853Z,24.90
2018-04-17T07:55:23.844Z,25.00
2018-04-17T07:56:23.840Z,22.60
2018-04-17T07:57:23.835Z,24.80
2018-04-17T07:58:23.831Z,22.20
2018-04-17T07:59:23.828Z,21.40
2018-04-17T08:00:23.824Z,19.70
2018-04-17T08:01:23.821Z,17.70
2018-04-17T08:02:23.818Z,15.70
2018-04-17T08:03:23.813Z,14.00
2018-04-17T08:04:23.812Z,13.60
2018-04-17T08:05:23.810Z,12.10
2018-04-17T08:06:23.805Z,13.20
2018-04-17T08:07:23.811Z,13.80
2018-04-17T08:08:26.554Z,14.30
2018-04-17T08:09:23.798Z,13.00
2018-04-17T08:10:23.798Z,12.50
2018-04-17T08:11:23.794Z,13.20
2018-04-17T08:12:23.793Z,12.20
2018-04-17T08:13:23.791Z,13.00
2018-04-17T08:14:23.792Z,12.80
2018-04-17T08:15:23.794Z,12.30
2018-04-17T08:16:23.786Z,11.70
2018-04-17T08:17:23.784Z,11.30
2018-04-17T08:18:23.786Z,10.40
2018-04-17T08:19:23.788Z,10.60
2018-04-17T08:20:23.783Z,9.70
2018-04-17T08:21:23.782Z,10.20
2018-04-17T08:22:23.784Z,9.40
2018-04-17T08:23:23.781Z,10.30
2018-04-17T08:24:23.780Z,10.40
2018-04-17T08:25:23.782Z,11.00
2018-04-17T08:26:23.780Z,10.90
2018-04-17T08:27:23.780Z,10.10
2018-04-17T08:28:23.780Z,9.00
2018-04-17T08:29:23.780Z,8.70
2018-04-17T08:30:23.782Z,9.10
2018-04-17T08:31:23.779Z,9.50
2018-04-17T08:32:23.780Z,9.30
2018-04-17T08:33:23.786Z,8.70
2018-04-17T08:34:23.797Z,9.40
2018-04-17T08:35:23.782Z,8.10
2018-04-17T08:36:23.782Z,8.70
2018-04-17T08:37:23.786Z,9.30
2018-04-17T08:38:23.784Z,8.10
2018-04-17T08:39:23.787Z,7.30
2018-04-17T08:40:23.789Z,7.50
2018-04-17T08:41:23.789Z,7.60
2018-04-17T08:42:23.787Z,9.20
2018-04-17T08:43:23.788Z,8.10
2018-04-17T08:44:23.789Z,8.00
2018-04-17T08:45:23.792Z,8.00
2018-04-17T08:46:23.791Z,8.00
2018-04-17T08:47:23.792Z,7.70
2018-04-17T08:48:23.793Z,6.80
2018-04-17T08:49:23.795Z,6.70
2018-04-17T08:50:23.799Z,6.40
2018-04-17T08:51:23.802Z,6.20
2018-04-17T08:52:23.798Z,6.20
2018-04-17T08:53:23.803Z,5.30
2018-04-17T08:54:23.805Z,5.00
2018-04-17T08:55:23.805Z,5.50
2018-04-17T08:56:23.805Z,5.00
2018-04-17T08:57:23.811Z,4.80
2018-04-17T08:58:23.808Z,4.80
2018-04-17T08:59:23.847Z,5.00
2018-04-17T09:00:23.810Z,4.60
2018-04-17T09:01:23.815Z,4.80
2018-04-17T09:02:23.819Z,5.20
2018-04-17T09:03:23.818Z,5.20
2018-04-17T09:04:23.819Z,4.70
2018-04-17T09:05:23.823Z,5.20
2018-04-17T09:06:23.827Z,4.90
2018-04-17T09:07:23.827Z,5.40
2018-04-17T09:08:23.829Z,5.40
2018-04-17T09:09:23.832Z,5.40
2018-04-17T09:10:23.835Z,5.40
2018-04-17T09:11:23.836Z,5.00
2018-04-17T09:12:23.843Z,5.30
2018-04-17T09:13:23.844Z,5.60
2018-04-17T09:14:23.845Z,5.70
2018-04-17T09:15:23.847Z,6.40
2018-04-17T09:16:23.850Z,6.00
2018-04-17T09:17:23.853Z,5.90
2018-04-17T09:18:23.856Z,5.50
2018-04-17T09:19:23.859Z,5.30
2018-04-17T09:20:23.864Z,5.50
2018-04-17T09:21:23.867Z,5.40
2018-04-17T09:22:23.869Z,4.90
2018-04-17T09:23:23.870Z,5.50
2018-04-17T09:24:23.874Z,5.80
2018-04-17T09:25:23.879Z,5.70
2018-04-17T09:26:23.881Z,4.90
2018-04-17T09:27:23.885Z,5.20
2018-04-17T09:28:23.889Z,5.10
2018-04-17T09:29:23.899Z,5.30
2018-04-17T09:30:23.898Z,4.90
2018-04-17T09:31:23.899Z,4.50
2018-04-17T09:32:23.903Z,4.90
2018-04-17T09:33:23.907Z,4.00
2018-04-17T09:34:23.912Z,3.60
2018-04-17T09:35:23.914Z,3.40
2018-04-17T09:36:23.921Z,2.90
2018-04-17T09:37:23.921Z,3.10
2018-04-17T09:38:23.931Z,3.00
2018-04-17T09:39:23.934Z,3.40
2018-04-17T09:40:23.935Z,3.50
2018-04-17T09:41:23.942Z,3.70
2018-04-17T09:42:23.942Z,3.80
2018-04-17T09:43:23.944Z,3.50
2018-04-17T09:44:23.953Z,3.10
2018-04-17T09:45:23.954Z,3.60
2018-04-17T09:46:23.957Z,3.70
2018-04-17T09:47:23.961Z,2.90
2018-04-17T09:48:24.014Z,3.00
2018-04-17T09:49:23.971Z,3.20
2018-04-17T09:50:23.972Z,3.10
2018-04-17T09:51:23.976Z,3.00
2018-04-17T09:52:23.980Z,3.00
2018-04-17T09:53:23.986Z,2.80
2018-04-17T09:54:23.989Z,2.80
2018-04-17T09:55:24.002Z,2.90
2018-04-17T09:56:23.998Z,2.90
2018-04-17T09:57:24.002Z,2.60
2018-04-17T09:58:24.008Z,2.80
2018-04-17T09:59:24.010Z,2.70
2018-04-17T10:00:24.015Z,2.70
2018-04-17T10:01:24.024Z,2.70
2018-04-17T10:02:24.025Z,2.60
2018-04-17T10:03:24.025Z,2.10
2018-04-17T10:04:24.032Z,2.60
2018-04-17T10:05:24.041Z,2.00
2018-04-17T10:06:24.040Z,2.40
2018-04-17T10:07:24.047Z,2.00
2018-04-17T10:08:24.050Z,2.40
2018-04-17T10:09:24.058Z,2.30
2018-04-17T10:10:24.059Z,2.00
2018-04-17T10:11:24.067Z,2.40
2018-04-17T10:12:24.067Z,2.30
2018-04-17T10:13:24.077Z,2.30
2018-04-17T10:14:24.078Z,2.30
2018-04-17T10:15:24.086Z,2.40
2018-04-17T10:16:24.088Z,3.00
2018-04-17T10:17:24.117Z,2.00
2018-04-17T10:18:24.097Z,2.20
2018-04-17T10:19:24.104Z,2.10
2018-04-17T10:20:24.106Z,2.50
2018-04-17T10:21:24.112Z,2.40
2018-04-17T10:22:24.124Z,2.30
2018-04-17T10:23:24.120Z,2.10
2018-04-17T10:24:24.126Z,2.30
2018-04-17T10:25:24.140Z,2.20
2018-04-17T10:26:24.137Z,2.30
2018-04-17T10:27:24.143Z,2.20
2018-04-17T10:28:24.148Z,1.90
2018-04-17T10:29:24.151Z,2.10
2018-04-17T10:30:24.213Z,1.90
2018-04-17T10:31:24.162Z,2.10
2018-04-17T10:32:24.168Z,2.00
2018-04-17T10:33:24.172Z,2.00
2018-04-17T10:34:24.182Z,2.20
2018-04-17T10:35:24.180Z,2.20
2018-04-17T10:36:24.184Z,2.10
2018-04-17T10:37:24.193Z,2.20
2018-04-17T10:38:24.191Z,2.30
2018-04-17T10:39:24.197Z,2.30
2018-04-17T10:40:24.196Z,1.60
2018-04-17T10:41:24.206Z,2.60
2018-04-17T10:42:24.202Z,1.60
2018-04-17T10:43:24.206Z,1.90
2018-04-17T10:44:24.207Z,1.50
2018-04-17T10:45:24.211Z,1.80
2018-04-17T10:46:24.212Z,1.80
2018-04-17T10:47:24.214Z,2.70
2018-04-17T10:48:24.216Z,2.40
2018-04-17T10:49:24.215Z,2.00
2018-04-17T10:50:24.219Z,2.70
2018-04-17T10:51:24.220Z,2.30
2018-04-17T10:52:24.223Z,3.00
2018-04-17T10:53:24.225Z,2.80
2018-04-17T10:54:24.223Z,2.70
2018-04-17T10:55:24.224Z,2.70
2018-04-17T10:56:24.225Z,2.50
2018-04-17T10:57:24.225Z,2.50
2018-04-17T10:58:24.225Z,3.30
2018-04-17T10:59:24.231Z,2.40
2018-04-17T11:00:24.224Z,2.80
2018-04-17T11:01:24.229Z,3.00
2018-04-17T11:02:24.227Z,3.20
2018-04-17T11:03:24.224Z,2.80
2018-04-17T11:04:24.224Z,3.20
2018-04-17T11:05:24.224Z,2.70
2018-04-17T11:06:24.225Z,3.10
2018-04-17T11:07:24.222Z,3.10
2018-04-17T11:08:24.222Z,3.40
2018-04-17T11:09:24.220Z,3.30
2018-04-17T11:10:24.224Z,2.90
2018-04-17T11:11:24.217Z,3.20
2018-04-17T11:12:24.218Z,3.00
2018-04-17T11:13:24.214Z,3.10
2018-04-17T11:14:24.216Z,3.10
2018-04-17T11:15:24.214Z,2.90
2018-04-17T11:16:24.218Z,3.10
2018-04-17T11:17:24.210Z,3.50
2018-04-17T11:18:24.208Z,2.60
2018-04-17T11:19:24.207Z,2.60
2018-04-17T11:20:24.204Z,2.90
2018-04-17T11:21:24.203Z,3.00
2018-04-17T11:22:24.202Z,2.20
2018-04-17T11:23:24.201Z,2.50
2018-04-17T11:24:24.196Z,3.10
2018-04-17T11:25:24.194Z,2.40
2018-04-17T11:26:24.194Z,2.70
2018-04-17T11:27:24.189Z,2.90
2018-04-17T11:28:24.183Z,3.20
2018-04-17T11:29:24.186Z,2.80
2018-04-17T11:30:24.185Z,2.60
2018-04-17T11:31:24.179Z,3.50
2018-04-17T11:32:24.175Z,3.40
2018-04-17T11:33:24.172Z,3.20
2018-04-17T11:34:24.170Z,2.70
2018-04-17T11:35:24.166Z,2.30
2018-04-17T11:36:24.164Z,2.90
2018-04-17T11:37:24.161Z,3.40
2018-04-17T11:38:24.159Z,2.70
2018-04-17T11:39:24.153Z,2.60
2018-04-17T11:40:24.150Z,2.70
2018-04-17T11:41:24.148Z,2.80
2018-04-17T11:42:24.190Z,2.90
2018-04-17T11:43:24.143Z,2.80
2018-04-17T11:44:24.137Z,2.70
2018-04-17T11:45:24.133Z,2.60
2018-04-17T11:46:24.132Z,2.90
2018-04-17T11:47:24.125Z,3.20
2018-04-17T11:48:24.126Z,2.90
2018-04-17T11:49:24.119Z,2.90
2018-04-17T11:50:24.115Z,2.60
2018-04-17T11:51:24.111Z,3.10
2018-04-17T11:52:24.109Z,2.80
2018-04-17T11:53:24.112Z,2.70
2018-04-17T11:54:24.104Z,3.20
2018-04-17T11:55:24.102Z,3.10
2018-04-17T11:56:24.093Z,3.20
2018-04-17T11:57:24.089Z,2.50
2018-04-17T11:58:24.086Z,2.50
2018-04-17T11:59:24.081Z,2.80
2018-04-17T12:00:24.077Z,3.10
2018-04-17T12:01:24.073Z,2.70
2018-04-17T12:02:24.126Z,2.50
2018-04-17T12:03:24.065Z,3.00
2018-04-17T12:04:24.060Z,2.40
2018-04-17T12:05:24.059Z,3.20
2018-04-17T12:06:24.052Z,3.20
2018-04-17T12:07:24.048Z,3.00
2018-04-17T12:08:24.048Z,2.40
2018-04-17T12:09:24.040Z,2.60
2018-04-17T12:10:24.043Z,2.90
2018-04-17T12:11:24.032Z,2.40
2018-04-17T12:12:24.027Z,2.70
2018-04-17T12:13:24.024Z,2.80
2018-04-17T12:14:24.021Z,2.70
2018-04-17T12:15:24.016Z,2.60
2018-04-17T12:16:24.012Z,2.40
2018-04-17T12:17:24.008Z,2.50
2018-04-17T12:18:24.000Z,2.60
2018-04-17T12:19:23.996Z,2.90
2018-04-17T12:20:24.004Z,2.70
2018-04-17T12:21:23.986Z,3.00
2018-04-17T12:22:23.988Z,2.90
2018-04-17T12:23:23.984Z,2.80
2018-04-17T12:24:23.975Z,3.00
2018-04-17T12:25:23.968Z,2.80
2018-04-17T12:26:23.962Z,2.60
2018-04-17T12:27:23.958Z,2.90
2018-04-17T12:28:23.956Z,2.70
2018-04-17T12:29:23.948Z,3.00
2018-04-17T12:30:23.943Z,3.20
2018-04-17T12:31:23.951Z,2.90
2018-04-17T12:32:23.934Z,3.00
2018-04-17T12:33:23.928Z,2.40
2018-04-17T12:34:23.937Z,2.90
2018-04-17T12:35:23.921Z,2.80
2018-04-17T12:36:23.910Z,3.00
2018-04-17T12:37:23.917Z,2.90
2018-04-17T12:38:23.903Z,3.20
2018-04-17T12:39:23.903Z,2.40
2018-04-17T12:40:23.894Z,2.60
2018-04-17T12:41:23.885Z,3.20
2018-04-17T12:42:23.882Z,2.70
2018-04-17T12:43:23.875Z,3.00
2018-04-17T12:44:23.869Z,2.70
2018-04-17T12:45:23.865Z,3.00
2018-04-17T12:46:23.857Z,3.00
2018-04-17T12:47:23.852Z,2.30
2018-04-17T12:48:23.846Z,2.80
2018-04-17T12:49:23.842Z,2.90
2018-04-17T12:50:23.837Z,2.70
2018-04-17T12:51:23.831Z,2.40
2018-04-17T12:52:23.827Z,2.50
2018-04-17T12:53:23.827Z,2.70
2018-04-17T12:54:23.817Z,2.50
2018-04-17T12:55:23.806Z,2.20
2018-04-17T12:56:23.801Z,2.10
2018-04-17T12:57:23.799Z,2.30
2018-04-17T12:58:23.794Z,2.60
2018-04-17T12:59:23.784Z,2.70
2018-04-17T13:00:23.780Z,2.50
2018-04-17T13:01:23.772Z,2.20